sensor_id;sensor_type;location;lat;lon;timestamp;P1;durP1;ratioP1;P2;durP2;ratioP2
32445;SDS011;18899;50.748;7.102;2022-07-23T00:00:58;20.50;;;10.27;;
32445;SDS011;18899;50.748;7.102;2022-07-23T00:03:24;14.77;;;9.75;;
32445;SDS011;18899;50.748;7.102;2022-07-23T00:05:50;17.48;;;10.60;;
32445;SDS011;18899;50.748;7.102;2022-07-23T00:08:15;19.90;;;10.70;;
32445;SDS011;18899;50.748;7.102;2022-07-23T00:10:41;19.23;;;10.30;;
32445;SDS011;18899;50.748;7.102;2022-07-23T00:13:06;18.45;;;10.85;;
32445;SDS011;18899;50.748;7.102;2022-07-23T00:15:32;15.90;;;10.13;;
32445;SDS011;18899;50.748;7.102;2022-07-23T00:17:58;19.60;;;10.50;;
32445;SDS011;18899;50.748;7.102;2022-07-23T00:20:23;16.48;;;10.48;;
32445;SDS011;18899;50.748;7.102;2022-07-23T00:22:50;18.95;;;12.55;;
32445;SDS011;18899;50.748;7.102;2022-07-23T00:25:17;20.23;;;11.85;;
32445;SDS011;18899;50.748;7.102;2022-07-23T00:27:43;20.52;;;11.70;;
32445;SDS011;18899;50.748;7.102;2022-07-23T00:30:09;25.95;;;12.43;;
32445;SDS011;18899;50.748;7.102;2022-07-23T00:32:48;18.33;;;11.10;;
32445;SDS011;18899;50.748;7.102;2022-07-23T00:35:15;23.25;;;12.73;;
32445;SDS011;18899;50.748;7.102;2022-07-23T00:37:44;21.85;;;13.02;;
32445;SDS011;18899;50.748;7.102;2022-07-23T00:40:10;23.48;;;12.55;;
32445;SDS011;18899;50.748;7.102;2022-07-23T00:42:36;19.50;;;11.88;;
32445;SDS011;18899;50.748;7.102;2022-07-23T00:45:02;22.50;;;12.75;;
32445;SDS011;18899;50.748;7.102;2022-07-23T00:47:28;22.52;;;12.48;;
32445;SDS011;18899;50.748;7.102;2022-07-23T00:49:53;23.02;;;12.85;;
32445;SDS011;18899;50.748;7.102;2022-07-23T00:52:19;23.70;;;14.35;;
32445;SDS011;18899;50.748;7.102;2022-07-23T00:54:45;23.98;;;13.05;;
32445;SDS011;18899;50.748;7.102;2022-07-23T00:57:10;20.48;;;12.48;;
32445;SDS011;18899;50.748;7.102;2022-07-23T00:59:37;22.52;;;13.52;;
32445;SDS011;18899;50.748;7.102;2022-07-23T01:02:03;22.80;;;13.40;;
32445;SDS011;18899;50.748;7.102;2022-07-23T01:04:29;25.42;;;13.48;;
32445;SDS011;18899;50.748;7.102;2022-07-23T01:06:55;21.67;;;13.15;;
32445;SDS011;18899;50.748;7.102;2022-07-23T01:09:20;23.55;;;14.18;;
32445;SDS011;18899;50.748;7.102;2022-07-23T01:11:46;24.45;;;13.73;;
32445;SDS011;18899;50.748;7.102;2022-07-23T01:14:13;26.05;;;14.13;;
32445;SDS011;18899;50.748;7.102;2022-07-23T01:16:40;21.65;;;14.48;;
32445;SDS011;18899;50.748;7.102;2022-07-23T01:19:07;29.23;;;15.48;;
32445;SDS011;18899;50.748;7.102;2022-07-23T01:21:41;29.05;;;15.02;;
32445;SDS011;18899;50.748;7.102;2022-07-23T01:24:08;30.52;;;16.05;;
32445;SDS011;18899;50.748;7.102;2022-07-23T01:26:35;23.48;;;15.00;;
32445;SDS011;18899;50.748;7.102;2022-07-23T01:29:01;29.35;;;16.05;;
32445;SDS011;18899;50.748;7.102;2022-07-23T01:31:28;28.02;;;15.40;;
32445;SDS011;18899;50.748;7.102;2022-07-23T01:33:53;24.90;;;15.18;;
32445;SDS011;18899;50.748;7.102;2022-07-23T01:36:19;27.88;;;15.73;;
32445;SDS011;18899;50.748;7.102;2022-07-23T01:38:44;27.23;;;15.98;;
32445;SDS011;18899;50.748;7.102;2022-07-23T01:41:10;24.15;;;15.43;;
32445;SDS011;18899;50.748;7.102;2022-07-23T01:43:35;24.65;;;16.23;;
32445;SDS011;18899;50.748;7.102;2022-07-23T01:46:01;33.50;;;17.15;;
32445;SDS011;18899;50.748;7.102;2022-07-23T01:48:27;31.50;;;16.33;;
32445;SDS011;18899;50.748;7.102;2022-07-23T01:50:52;30.08;;;16.67;;
32445;SDS011;18899;50.748;7.102;2022-07-23T01:53:18;29.42;;;16.85;;
32445;SDS011;18899;50.748;7.102;2022-07-23T01:55:43;32.30;;;17.20;;
32445;SDS011;18899;50.748;7.102;2022-07-23T01:58:09;28.25;;;15.88;;
32445;SDS011;18899;50.748;7.102;2022-07-23T02:00:35;27.88;;;15.70;;
32445;SDS011;18899;50.748;7.102;2022-07-23T02:03:00;30.13;;;15.68;;
32445;SDS011;18899;50.748;7.102;2022-07-23T02:05:26;29.38;;;15.45;;
32445;SDS011;18899;50.748;7.102;2022-07-23T02:07:53;27.77;;;15.30;;
32445;SDS011;18899;50.748;7.102;2022-07-23T02:10:20;26.20;;;15.02;;
32445;SDS011;18899;50.748;7.102;2022-07-23T02:12:45;23.25;;;14.30;;
32445;SDS011;18899;50.748;7.102;2022-07-23T02:15:11;23.17;;;14.45;;
32445;SDS011;18899;50.748;7.102;2022-07-23T02:17:37;23.65;;;13.90;;
32445;SDS011;18899;50.748;7.102;2022-07-23T02:20:03;24.90;;;14.02;;
32445;SDS011;18899;50.748;7.102;2022-07-23T02:22:29;25.10;;;14.02;;
32445;SDS011;18899;50.748;7.102;2022-07-23T02:24:55;26.58;;;13.43;;
32445;SDS011;18899;50.748;7.102;2022-07-23T02:27:21;24.10;;;13.57;;
32445;SDS011;18899;50.748;7.102;2022-07-23T02:29:46;23.40;;;13.63;;
32445;SDS011;18899;50.748;7.102;2022-07-23T02:32:12;24.55;;;14.10;;
32445;SDS011;18899;50.748;7.102;2022-07-23T02:34:37;25.40;;;14.55;;
32445;SDS011;18899;50.748;7.102;2022-07-23T02:37:03;26.92;;;15.20;;
32445;SDS011;18899;50.748;7.102;2022-07-23T02:39:28;24.90;;;13.77;;
32445;SDS011;18899;50.748;7.102;2022-07-23T02:41:54;30.17;;;14.10;;
32445;SDS011;18899;50.748;7.102;2022-07-23T02:44:19;24.58;;;13.02;;
32445;SDS011;18899;50.748;7.102;2022-07-23T02:46:45;22.63;;;13.32;;
32445;SDS011;18899;50.748;7.102;2022-07-23T02:49:10;23.50;;;13.52;;
32445;SDS011;18899;50.748;7.102;2022-07-23T02:51:36;21.10;;;11.82;;
32445;SDS011;18899;50.748;7.102;2022-07-23T02:54:01;22.50;;;12.00;;
32445;SDS011;18899;50.748;7.102;2022-07-23T02:56:28;21.85;;;11.60;;
32445;SDS011;18899;50.748;7.102;2022-07-23T02:58:53;22.17;;;11.65;;
32445;SDS011;18899;50.748;7.102;2022-07-23T03:01:19;20.02;;;10.88;;
32445;SDS011;18899;50.748;7.102;2022-07-23T03:03:44;17.88;;;11.07;;
32445;SDS011;18899;50.748;7.102;2022-07-23T03:06:10;15.52;;;9.82;;
32445;SDS011;18899;50.748;7.102;2022-07-23T03:08:35;16.92;;;9.68;;
32445;SDS011;18899;50.748;7.102;2022-07-23T03:11:01;18.42;;;10.10;;
32445;SDS011;18899;50.748;7.102;2022-07-23T03:13:27;20.40;;;9.75;;
32445;SDS011;18899;50.748;7.102;2022-07-23T03:15:52;21.73;;;10.57;;
32445;SDS011;18899;50.748;7.102;2022-07-23T03:18:18;16.98;;;9.50;;
32445;SDS011;18899;50.748;7.102;2022-07-23T03:20:43;18.63;;;9.38;;
32445;SDS011;18899;50.748;7.102;2022-07-23T03:23:09;17.02;;;9.18;;
32445;SDS011;18899;50.748;7.102;2022-07-23T03:25:34;17.75;;;9.18;;
32445;SDS011;18899;50.748;7.102;2022-07-23T03:28:00;17.67;;;9.57;;
32445;SDS011;18899;50.748;7.102;2022-07-23T03:30:25;21.95;;;9.45;;
32445;SDS011;18899;50.748;7.102;2022-07-23T03:32:51;16.33;;;9.10;;
32445;SDS011;18899;50.748;7.102;2022-07-23T03:35:16;19.15;;;9.68;;
32445;SDS011;18899;50.748;7.102;2022-07-23T03:37:42;14.88;;;9.65;;
32445;SDS011;18899;50.748;7.102;2022-07-23T03:40:08;21.17;;;11.30;;
32445;SDS011;18899;50.748;7.102;2022-07-23T03:42:33;21.75;;;11.60;;
32445;SDS011;18899;50.748;7.102;2022-07-23T03:44:59;19.92;;;11.35;;
32445;SDS011;18899;50.748;7.102;2022-07-23T03:47:25;21.23;;;11.57;;
32445;SDS011;18899;50.748;7.102;2022-07-23T03:49:51;17.73;;;10.55;;
32445;SDS011;18899;50.748;7.102;2022-07-23T03:52:16;18.85;;;10.80;;
32445;SDS011;18899;50.748;7.102;2022-07-23T03:54:42;17.88;;;9.75;;
32445;SDS011;18899;50.748;7.102;2022-07-23T03:57:07;17.90;;;9.93;;
32445;SDS011;18899;50.748;7.102;2022-07-23T03:59:33;21.38;;;11.05;;
32445;SDS011;18899;50.748;7.102;2022-07-23T04:01:58;19.27;;;10.98;;
32445;SDS011;18899;50.748;7.102;2022-07-23T04:04:24;18.70;;;9.65;;
32445;SDS011;18899;50.748;7.102;2022-07-23T04:06:49;18.75;;;9.57;;
32445;SDS011;18899;50.748;7.102;2022-07-23T04:09:15;17.77;;;9.73;;
32445;SDS011;18899;50.748;7.102;2022-07-23T04:11:40;18.70;;;10.30;;
32445;SDS011;18899;50.748;7.102;2022-07-23T04:14:06;18.13;;;9.45;;
32445;SDS011;18899;50.748;7.102;2022-07-23T04:16:32;14.05;;;9.35;;
32445;SDS011;18899;50.748;7.102;2022-07-23T04:18:57;17.73;;;10.15;;
32445;SDS011;18899;50.748;7.102;2022-07-23T04:21:23;18.10;;;10.32;;
32445;SDS011;18899;50.748;7.102;2022-07-23T04:23:49;20.23;;;10.60;;
32445;SDS011;18899;50.748;7.102;2022-07-23T04:26:15;16.33;;;9.70;;
32445;SDS011;18899;50.748;7.102;2022-07-23T04:28:40;18.05;;;9.50;;
32445;SDS011;18899;50.748;7.102;2022-07-23T04:31:06;16.45;;;9.93;;
32445;SDS011;18899;50.748;7.102;2022-07-23T04:33:32;20.73;;;10.57;;
32445;SDS011;18899;50.748;7.102;2022-07-23T04:35:57;16.88;;;9.93;;
32445;SDS011;18899;50.748;7.102;2022-07-23T04:38:23;20.60;;;10.10;;
32445;SDS011;18899;50.748;7.102;2022-07-23T04:40:48;17.85;;;9.93;;
32445;SDS011;18899;50.748;7.102;2022-07-23T04:43:14;19.50;;;10.50;;
32445;SDS011;18899;50.748;7.102;2022-07-23T04:45:39;18.52;;;11.00;;
32445;SDS011;18899;50.748;7.102;2022-07-23T04:48:05;18.20;;;11.55;;
32445;SDS011;18899;50.748;7.102;2022-07-23T04:50:31;20.35;;;11.70;;
32445;SDS011;18899;50.748;7.102;2022-07-23T04:52:56;20.73;;;11.23;;
32445;SDS011;18899;50.748;7.102;2022-07-23T04:55:22;20.48;;;12.13;;
32445;SDS011;18899;50.748;7.102;2022-07-23T04:57:47;21.67;;;12.32;;
32445;SDS011;18899;50.748;7.102;2022-07-23T05:00:13;22.35;;;12.90;;
32445;SDS011;18899;50.748;7.102;2022-07-23T05:02:39;25.77;;;13.18;;
32445;SDS011;18899;50.748;7.102;2022-07-23T05:05:05;21.88;;;13.23;;
32445;SDS011;18899;50.748;7.102;2022-07-23T05:07:30;21.20;;;12.05;;
32445;SDS011;18899;50.748;7.102;2022-07-23T05:09:58;22.40;;;12.77;;
32445;SDS011;18899;50.748;7.102;2022-07-23T05:12:24;22.05;;;12.82;;
32445;SDS011;18899;50.748;7.102;2022-07-23T05:14:49;21.52;;;13.23;;
32445;SDS011;18899;50.748;7.102;2022-07-23T05:17:15;25.58;;;13.23;;
32445;SDS011;18899;50.748;7.102;2022-07-23T05:19:40;25.05;;;12.98;;
32445;SDS011;18899;50.748;7.102;2022-07-23T05:22:06;23.88;;;13.68;;
32445;SDS011;18899;50.748;7.102;2022-07-23T05:24:31;27.63;;;13.85;;
32445;SDS011;18899;50.748;7.102;2022-07-23T05:26:57;22.92;;;13.07;;
32445;SDS011;18899;50.748;7.102;2022-07-23T05:29:22;25.58;;;13.82;;
32445;SDS011;18899;50.748;7.102;2022-07-23T05:31:48;21.92;;;13.13;;
32445;SDS011;18899;50.748;7.102;2022-07-23T05:34:13;21.25;;;12.75;;
32445;SDS011;18899;50.748;7.102;2022-07-23T05:36:39;26.20;;;13.65;;
32445;SDS011;18899;50.748;7.102;2022-07-23T05:39:04;24.35;;;12.82;;
32445;SDS011;18899;50.748;7.102;2022-07-23T05:41:30;21.10;;;12.65;;
32445;SDS011;18899;50.748;7.102;2022-07-23T05:43:55;24.75;;;13.20;;
32445;SDS011;18899;50.748;7.102;2022-07-23T05:46:21;27.05;;;13.15;;
32445;SDS011;18899;50.748;7.102;2022-07-23T05:48:46;23.98;;;13.68;;
32445;SDS011;18899;50.748;7.102;2022-07-23T05:51:19;29.05;;;13.48;;
32445;SDS011;18899;50.748;7.102;2022-07-23T05:53:45;21.52;;;13.30;;
32445;SDS011;18899;50.748;7.102;2022-07-23T05:56:11;23.13;;;13.90;;
32445;SDS011;18899;50.748;7.102;2022-07-23T05:58:36;25.67;;;13.40;;
32445;SDS011;18899;50.748;7.102;2022-07-23T06:01:02;23.00;;;12.15;;
32445;SDS011;18899;50.748;7.102;2022-07-23T06:03:27;23.13;;;13.07;;
32445;SDS011;18899;50.748;7.102;2022-07-23T06:05:53;22.52;;;12.93;;
32445;SDS011;18899;50.748;7.102;2022-07-23T06:08:18;29.13;;;14.43;;
32445;SDS011;18899;50.748;7.102;2022-07-23T06:10:44;26.30;;;12.23;;
32445;SDS011;18899;50.748;7.102;2022-07-23T06:13:09;26.13;;;12.95;;
32445;SDS011;18899;50.748;7.102;2022-07-23T06:15:35;27.38;;;13.35;;
32445;SDS011;18899;50.748;7.102;2022-07-23T06:18:01;23.48;;;11.88;;
32445;SDS011;18899;50.748;7.102;2022-07-23T06:20:26;19.88;;;11.65;;
32445;SDS011;18899;50.748;7.102;2022-07-23T06:22:52;22.30;;;11.02;;
32445;SDS011;18899;50.748;7.102;2022-07-23T06:25:17;18.42;;;10.70;;
32445;SDS011;18899;50.748;7.102;2022-07-23T06:27:45;18.60;;;9.90;;
32445;SDS011;18899;50.748;7.102;2022-07-23T06:30:12;21.17;;;9.80;;
32445;SDS011;18899;50.748;7.102;2022-07-23T06:32:38;20.48;;;10.20;;
32445;SDS011;18899;50.748;7.102;2022-07-23T06:35:03;19.50;;;10.35;;
32445;SDS011;18899;50.748;7.102;2022-07-23T06:37:29;17.27;;;9.35;;
32445;SDS011;18899;50.748;7.102;2022-07-23T06:39:55;18.60;;;9.10;;
32445;SDS011;18899;50.748;7.102;2022-07-23T06:42:20;16.05;;;8.20;;
32445;SDS011;18899;50.748;7.102;2022-07-23T06:44:46;14.45;;;8.80;;
32445;SDS011;18899;50.748;7.102;2022-07-23T06:47:11;15.45;;;8.75;;
32445;SDS011;18899;50.748;7.102;2022-07-23T06:49:37;13.50;;;8.65;;
32445;SDS011;18899;50.748;7.102;2022-07-23T06:52:03;14.77;;;8.68;;
32445;SDS011;18899;50.748;7.102;2022-07-23T06:54:28;17.33;;;8.18;;
32445;SDS011;18899;50.748;7.102;2022-07-23T06:56:54;17.55;;;8.40;;
32445;SDS011;18899;50.748;7.102;2022-07-23T06:59:19;13.85;;;8.55;;
32445;SDS011;18899;50.748;7.102;2022-07-23T07:01:45;13.25;;;9.18;;
32445;SDS011;18899;50.748;7.102;2022-07-23T07:04:11;13.35;;;8.73;;
32445;SDS011;18899;50.748;7.102;2022-07-23T07:06:36;15.85;;;8.60;;
32445;SDS011;18899;50.748;7.102;2022-07-23T07:09:02;15.35;;;7.88;;
32445;SDS011;18899;50.748;7.102;2022-07-23T07:11:27;11.45;;;7.90;;
32445;SDS011;18899;50.748;7.102;2022-07-23T07:13:53;12.55;;;7.28;;
32445;SDS011;18899;50.748;7.102;2022-07-23T07:16:18;12.90;;;7.30;;
32445;SDS011;18899;50.748;7.102;2022-07-23T07:18:44;12.13;;;6.93;;
32445;SDS011;18899;50.748;7.102;2022-07-23T07:21:10;12.02;;;7.13;;
32445;SDS011;18899;50.748;7.102;2022-07-23T07:23:36;14.27;;;8.38;;
32445;SDS011;18899;50.748;7.102;2022-07-23T07:26:02;11.35;;;7.03;;
32445;SDS011;18899;50.748;7.102;2022-07-23T07:28:27;15.02;;;7.13;;
32445;SDS011;18899;50.748;7.102;2022-07-23T07:30:53;12.27;;;6.78;;
32445;SDS011;18899;50.748;7.102;2022-07-23T07:33:19;9.75;;;5.70;;
32445;SDS011;18899;50.748;7.102;2022-07-23T07:35:46;11.00;;;6.63;;
32445;SDS011;18899;50.748;7.102;2022-07-23T07:38:11;10.95;;;6.20;;
32445;SDS011;18899;50.748;7.102;2022-07-23T07:40:37;13.52;;;6.50;;
32445;SDS011;18899;50.748;7.102;2022-07-23T07:43:03;7.50;;;5.05;;
32445;SDS011;18899;50.748;7.102;2022-07-23T07:45:28;8.02;;;4.80;;
32445;SDS011;18899;50.748;7.102;2022-07-23T07:47:54;5.20;;;3.58;;
32445;SDS011;18899;50.748;7.102;2022-07-23T07:50:20;10.90;;;4.05;;
32445;SDS011;18899;50.748;7.102;2022-07-23T07:52:46;10.55;;;5.05;;
32445;SDS011;18899;50.748;7.102;2022-07-23T07:55:12;8.57;;;4.63;;
32445;SDS011;18899;50.748;7.102;2022-07-23T07:57:38;7.45;;;4.78;;
32445;SDS011;18899;50.748;7.102;2022-07-23T08:00:08;7.30;;;3.53;;
32445;SDS011;18899;50.748;7.102;2022-07-23T08:02:44;7.32;;;4.35;;
32445;SDS011;18899;50.748;7.102;2022-07-23T08:05:11;10.80;;;5.35;;
32445;SDS011;18899;50.748;7.102;2022-07-23T08:07:38;11.77;;;5.63;;
32445;SDS011;18899;50.748;7.102;2022-07-23T08:10:05;9.85;;;6.15;;
32445;SDS011;18899;50.748;7.102;2022-07-23T08:12:39;11.13;;;6.68;;
32445;SDS011;18899;50.748;7.102;2022-07-23T08:15:12;12.83;;;6.87;;
32445;SDS011;18899;50.748;7.102;2022-07-23T08:17:38;9.75;;;6.25;;
32445;SDS011;18899;50.748;7.102;2022-07-23T08:20:05;13.05;;;7.10;;
32445;SDS011;18899;50.748;7.102;2022-07-23T08:22:42;12.48;;;6.05;;
32445;SDS011;18899;50.748;7.102;2022-07-23T08:25:09;10.60;;;6.25;;
32445;SDS011;18899;50.748;7.102;2022-07-23T08:27:35;11.82;;;6.40;;
32445;SDS011;18899;50.748;7.102;2022-07-23T08:30:00;10.73;;;6.55;;
32445;SDS011;18899;50.748;7.102;2022-07-23T08:32:26;10.55;;;5.78;;
32445;SDS011;18899;50.748;7.102;2022-07-23T08:34:51;10.90;;;7.03;;
32445;SDS011;18899;50.748;7.102;2022-07-23T08:37:17;9.20;;;5.78;;
32445;SDS011;18899;50.748;7.102;2022-07-23T08:39:42;9.50;;;6.18;;
32445;SDS011;18899;50.748;7.102;2022-07-23T08:42:08;7.85;;;5.47;;
32445;SDS011;18899;50.748;7.102;2022-07-23T08:44:34;10.00;;;6.03;;
32445;SDS011;18899;50.748;7.102;2022-07-23T08:47:00;10.13;;;6.78;;
32445;SDS011;18899;50.748;7.102;2022-07-23T08:49:27;10.90;;;5.82;;
32445;SDS011;18899;50.748;7.102;2022-07-23T08:51:54;8.60;;;5.60;;
32445;SDS011;18899;50.748;7.102;2022-07-23T08:54:21;11.60;;;6.55;;
32445;SDS011;18899;50.748;7.102;2022-07-23T08:56:47;11.05;;;6.72;;
32445;SDS011;18899;50.748;7.102;2022-07-23T08:59:13;10.38;;;6.45;;
32445;SDS011;18899;50.748;7.102;2022-07-23T09:01:39;9.98;;;6.13;;
32445;SDS011;18899;50.748;7.102;2022-07-23T09:04:05;9.30;;;5.80;;
32445;SDS011;18899;50.748;7.102;2022-07-23T09:06:30;9.95;;;6.60;;
32445;SDS011;18899;50.748;7.102;2022-07-23T09:08:56;9.60;;;5.90;;
32445;SDS011;18899;50.748;7.102;2022-07-23T09:11:22;9.05;;;5.93;;
32445;SDS011;18899;50.748;7.102;2022-07-23T09:13:48;11.57;;;5.40;;
32445;SDS011;18899;50.748;7.102;2022-07-23T09:16:18;9.43;;;6.00;;
32445;SDS011;18899;50.748;7.102;2022-07-23T09:18:51;9.20;;;6.20;;
32445;SDS011;18899;50.748;7.102;2022-07-23T09:21:19;9.48;;;6.43;;
32445;SDS011;18899;50.748;7.102;2022-07-23T09:23:53;10.60;;;6.28;;
32445;SDS011;18899;50.748;7.102;2022-07-23T09:29:08;11.05;;;6.47;;
32445;SDS011;18899;50.748;7.102;2022-07-23T09:31:44;8.48;;;5.55;;
32445;SDS011;18899;50.748;7.102;2022-07-23T09:34:13;9.23;;;6.18;;
32445;SDS011;18899;50.748;7.102;2022-07-23T09:36:41;12.57;;;6.20;;
32445;SDS011;18899;50.748;7.102;2022-07-23T09:39:07;9.50;;;5.10;;
32445;SDS011;18899;50.748;7.102;2022-07-23T09:41:34;10.05;;;5.53;;
32445;SDS011;18899;50.748;7.102;2022-07-23T09:44:09;10.25;;;5.53;;
32445;SDS011;18899;50.748;7.102;2022-07-23T09:46:37;8.10;;;5.32;;
32445;SDS011;18899;50.748;7.102;2022-07-23T09:49:12;7.13;;;4.88;;
32445;SDS011;18899;50.748;7.102;2022-07-23T09:51:48;12.32;;;5.35;;
32445;SDS011;18899;50.748;7.102;2022-07-23T09:54:29;8.77;;;5.18;;
32445;SDS011;18899;50.748;7.102;2022-07-23T09:57:01;8.52;;;6.30;;
32445;SDS011;18899;50.748;7.102;2022-07-23T09:59:36;9.18;;;5.38;;
32445;SDS011;18899;50.748;7.102;2022-07-23T10:02:03;10.52;;;5.30;;
32445;SDS011;18899;50.748;7.102;2022-07-23T10:04:30;8.00;;;5.10;;
32445;SDS011;18899;50.748;7.102;2022-07-23T10:07:01;7.28;;;5.18;;
32445;SDS011;18899;50.748;7.102;2022-07-23T10:09:33;8.90;;;5.18;;
32445;SDS011;18899;50.748;7.102;2022-07-23T10:12:01;8.60;;;5.03;;
32445;SDS011;18899;50.748;7.102;2022-07-23T10:14:38;7.95;;;5.18;;
32445;SDS011;18899;50.748;7.102;2022-07-23T10:17:05;7.22;;;5.07;;
32445;SDS011;18899;50.748;7.102;2022-07-23T10:19:31;10.85;;;4.95;;
32445;SDS011;18899;50.748;7.102;2022-07-23T10:22:02;8.02;;;5.13;;
32445;SDS011;18899;50.748;7.102;2022-07-23T10:24:53;9.48;;;5.55;;
32445;SDS011;18899;50.748;7.102;2022-07-23T10:35:36;7.05;;;4.35;;
32445;SDS011;18899;50.748;7.102;2022-07-23T10:40:53;6.60;;;4.05;;
32445;SDS011;18899;50.748;7.102;2022-07-23T10:43:20;5.32;;;3.67;;
32445;SDS011;18899;50.748;7.102;2022-07-23T10:45:46;5.43;;;3.30;;
32445;SDS011;18899;50.748;7.102;2022-07-23T10:48:14;5.47;;;3.40;;
32445;SDS011;18899;50.748;7.102;2022-07-23T10:50:42;5.68;;;3.83;;
32445;SDS011;18899;50.748;7.102;2022-07-23T10:53:09;8.05;;;5.35;;
32445;SDS011;18899;50.748;7.102;2022-07-23T10:58:04;8.30;;;5.35;;
32445;SDS011;18899;50.748;7.102;2022-07-23T11:00:33;9.73;;;6.13;;
32445;SDS011;18899;50.748;7.102;2022-07-23T11:03:01;9.38;;;5.63;;
32445;SDS011;18899;50.748;7.102;2022-07-23T11:05:42;6.35;;;5.25;;
32445;SDS011;18899;50.748;7.102;2022-07-23T11:08:11;5.50;;;3.33;;
32445;SDS011;18899;50.748;7.102;2022-07-23T11:10:55;5.22;;;3.38;;
32445;SDS011;18899;50.748;7.102;2022-07-23T11:13:38;7.30;;;5.05;;
32445;SDS011;18899;50.748;7.102;2022-07-23T11:16:16;7.75;;;4.72;;
32445;SDS011;18899;50.748;7.102;2022-07-23T11:29:37;9.35;;;6.28;;
32445;SDS011;18899;50.748;7.102;2022-07-23T11:31:59;6.55;;;4.80;;
32445;SDS011;18899;50.748;7.102;2022-07-23T11:34:42;12.00;;;5.72;;
32445;SDS011;18899;50.748;7.102;2022-07-23T11:37:26;7.97;;;5.97;;
32445;SDS011;18899;50.748;7.102;2022-07-23T11:39:55;10.50;;;5.82;;
32445;SDS011;18899;50.748;7.102;2022-07-23T11:42:22;9.15;;;5.78;;
32445;SDS011;18899;50.748;7.102;2022-07-23T11:44:49;6.97;;;5.20;;
32445;SDS011;18899;50.748;7.102;2022-07-23T11:47:15;11.85;;;5.00;;
32445;SDS011;18899;50.748;7.102;2022-07-23T11:52:18;7.80;;;5.22;;
32445;SDS011;18899;50.748;7.102;2022-07-23T11:54:58;13.13;;;5.70;;
32445;SDS011;18899;50.748;7.102;2022-07-23T11:57:33;11.63;;;6.00;;
32445;SDS011;18899;50.748;7.102;2022-07-23T12:02:40;7.93;;;5.47;;
32445;SDS011;18899;50.748;7.102;2022-07-23T12:05:08;9.65;;;5.93;;
32445;SDS011;18899;50.748;7.102;2022-07-23T12:07:38;6.90;;;5.33;;
32445;SDS011;18899;50.748;7.102;2022-07-23T12:10:15;9.43;;;4.43;;
32445;SDS011;18899;50.748;7.102;2022-07-23T12:12:52;5.60;;;3.60;;
32445;SDS011;18899;50.748;7.102;2022-07-23T12:15:20;8.50;;;4.70;;
32445;SDS011;18899;50.748;7.102;2022-07-23T12:17:49;8.00;;;5.30;;
32445;SDS011;18899;50.748;7.102;2022-07-23T12:20:17;10.32;;;5.88;;
32445;SDS011;18899;50.748;7.102;2022-07-23T12:22:45;8.52;;;5.45;;
32445;SDS011;18899;50.748;7.102;2022-07-23T12:25:13;8.35;;;5.55;;
32445;SDS011;18899;50.748;7.102;2022-07-23T12:27:42;6.72;;;4.85;;
32445;SDS011;18899;50.748;7.102;2022-07-23T12:31:09;9.23;;;6.50;;
32445;SDS011;18899;50.748;7.102;2022-07-23T12:33:31;10.82;;;4.90;;
32445;SDS011;18899;50.748;7.102;2022-07-23T12:35:58;6.13;;;4.35;;
32445;SDS011;18899;50.748;7.102;2022-07-23T12:38:26;8.35;;;4.97;;
32445;SDS011;18899;50.748;7.102;2022-07-23T12:40:54;8.85;;;5.82;;
32445;SDS011;18899;50.748;7.102;2022-07-23T12:45:52;11.02;;;5.43;;
32445;SDS011;18899;50.748;7.102;2022-07-23T12:48:21;9.48;;;4.93;;
32445;SDS011;18899;50.748;7.102;2022-07-23T12:53:23;7.32;;;4.72;;
32445;SDS011;18899;50.748;7.102;2022-07-23T12:55:49;8.55;;;5.00;;
32445;SDS011;18899;50.748;7.102;2022-07-23T12:58:16;7.90;;;4.72;;
32445;SDS011;18899;50.748;7.102;2022-07-23T13:03:25;5.10;;;2.92;;
32445;SDS011;18899;50.748;7.102;2022-07-23T13:05:58;3.83;;;2.90;;
32445;SDS011;18899;50.748;7.102;2022-07-23T13:08:25;5.38;;;3.13;;
32445;SDS011;18899;50.748;7.102;2022-07-23T13:10:53;4.47;;;2.80;;
32445;SDS011;18899;50.748;7.102;2022-07-23T13:13:23;4.07;;;2.40;;
32445;SDS011;18899;50.748;7.102;2022-07-23T13:15:49;4.03;;;2.80;;
32445;SDS011;18899;50.748;7.102;2022-07-23T13:18:15;4.25;;;2.78;;
32445;SDS011;18899;50.748;7.102;2022-07-23T13:20:41;6.53;;;2.75;;
32445;SDS011;18899;50.748;7.102;2022-07-23T13:23:08;7.13;;;2.90;;
32445;SDS011;18899;50.748;7.102;2022-07-23T13:25:33;6.30;;;2.47;;
32445;SDS011;18899;50.748;7.102;2022-07-23T13:27:59;6.43;;;3.30;;
32445;SDS011;18899;50.748;7.102;2022-07-23T13:30:25;4.93;;;2.90;;
32445;SDS011;18899;50.748;7.102;2022-07-23T13:32:50;4.68;;;2.95;;
32445;SDS011;18899;50.748;7.102;2022-07-23T13:35:16;5.88;;;2.90;;
32445;SDS011;18899;50.748;7.102;2022-07-23T13:37:42;6.72;;;3.28;;
32445;SDS011;18899;50.748;7.102;2022-07-23T13:40:07;5.80;;;3.35;;
32445;SDS011;18899;50.748;7.102;2022-07-23T13:42:33;6.38;;;3.03;;
32445;SDS011;18899;50.748;7.102;2022-07-23T13:44:59;6.05;;;2.90;;
32445;SDS011;18899;50.748;7.102;2022-07-23T13:47:24;9.60;;;2.72;;
32445;SDS011;18899;50.748;7.102;2022-07-23T13:49:50;4.38;;;2.95;;
32445;SDS011;18899;50.748;7.102;2022-07-23T13:52:15;5.15;;;3.00;;
32445;SDS011;18899;50.748;7.102;2022-07-23T13:54:41;4.25;;;2.72;;
32445;SDS011;18899;50.748;7.102;2022-07-23T13:57:06;4.65;;;2.83;;
32445;SDS011;18899;50.748;7.102;2022-07-23T13:59:34;5.80;;;2.88;;
32445;SDS011;18899;50.748;7.102;2022-07-23T14:01:59;4.43;;;2.72;;
32445;SDS011;18899;50.748;7.102;2022-07-23T14:04:26;8.35;;;3.20;;
32445;SDS011;18899;50.748;7.102;2022-07-23T14:06:52;5.88;;;3.00;;
32445;SDS011;18899;50.748;7.102;2022-07-23T14:09:17;6.10;;;3.20;;
32445;SDS011;18899;50.748;7.102;2022-07-23T14:11:43;3.40;;;2.50;;
32445;SDS011;18899;50.748;7.102;2022-07-23T14:14:08;5.03;;;2.50;;
32445;SDS011;18899;50.748;7.102;2022-07-23T14:16:34;4.78;;;2.92;;
32445;SDS011;18899;50.748;7.102;2022-07-23T14:18:59;6.18;;;3.03;;
32445;SDS011;18899;50.748;7.102;2022-07-23T14:21:25;6.97;;;2.70;;
32445;SDS011;18899;50.748;7.102;2022-07-23T14:23:51;8.30;;;3.08;;
32445;SDS011;18899;50.748;7.102;2022-07-23T14:26:16;8.30;;;2.92;;
32445;SDS011;18899;50.748;7.102;2022-07-23T14:28:42;9.80;;;3.00;;
32445;SDS011;18899;50.748;7.102;2022-07-23T14:31:07;5.75;;;2.85;;
32445;SDS011;18899;50.748;7.102;2022-07-23T14:33:33;5.03;;;3.03;;
32445;SDS011;18899;50.748;7.102;2022-07-23T14:35:58;4.47;;;2.42;;
32445;SDS011;18899;50.748;7.102;2022-07-23T14:38:24;3.50;;;2.55;;
32445;SDS011;18899;50.748;7.102;2022-07-23T14:40:49;5.65;;;2.95;;
32445;SDS011;18899;50.748;7.102;2022-07-23T14:43:15;5.78;;;2.42;;
32445;SDS011;18899;50.748;7.102;2022-07-23T14:45:40;3.15;;;2.40;;
32445;SDS011;18899;50.748;7.102;2022-07-23T14:48:06;4.78;;;2.95;;
32445;SDS011;18899;50.748;7.102;2022-07-23T14:50:32;5.78;;;3.35;;
32445;SDS011;18899;50.748;7.102;2022-07-23T14:52:57;4.05;;;2.72;;
32445;SDS011;18899;50.748;7.102;2022-07-23T14:55:23;5.75;;;2.83;;
32445;SDS011;18899;50.748;7.102;2022-07-23T14:57:48;5.22;;;3.05;;
32445;SDS011;18899;50.748;7.102;2022-07-23T15:00:14;6.95;;;2.70;;
32445;SDS011;18899;50.748;7.102;2022-07-23T15:02:39;5.55;;;3.30;;
32445;SDS011;18899;50.748;7.102;2022-07-23T15:05:05;6.43;;;3.05;;
32445;SDS011;18899;50.748;7.102;2022-07-23T15:07:31;10.07;;;3.05;;
32445;SDS011;18899;50.748;7.102;2022-07-23T15:09:57;3.97;;;2.83;;
32445;SDS011;18899;50.748;7.102;2022-07-23T15:12:23;6.03;;;2.40;;